createdAt,value
2022-08-25T00:01:39.292Z,32.78
2022-08-25T00:04:11.151Z,36.33
2022-08-25T00:06:40.765Z,32.83
2022-08-25T00:09:08.981Z,28.52
2022-08-25T00:11:37.846Z,30.92
2022-08-25T00:14:10.588Z,23.83
2022-08-25T00:16:38.007Z,30.77
2022-08-25T00:19:09.060Z,30.15
2022-08-25T00:21:36.372Z,27.67
2022-08-25T00:24:04.395Z,27.73
2022-08-25T00:26:31.549Z,30.90
2022-08-25T00:29:01.754Z,37.92
2022-08-25T00:31:38.185Z,29.63
2022-08-25T00:34:09.895Z,24.63
2022-08-25T00:36:37.796Z,28.25
2022-08-25T00:39:07.616Z,31.45
2022-08-25T00:41:35.506Z,35.25
2022-08-25T00:44:06.414Z,33.35
2022-08-25T00:46:43.620Z,32.33
2022-08-25T00:49:25.455Z,38.97
2022-08-25T00:51:55.516Z,40.10
2022-08-25T00:54:27.410Z,29.98
2022-08-25T00:56:55.211Z,36.40
2022-08-25T00:59:24.579Z,27.88
2022-08-25T01:01:52.372Z,31.83
2022-08-25T01:04:19.632Z,29.95
2022-08-25T01:06:48.863Z,32.25
2022-08-25T01:09:17.302Z,33.92
2022-08-25T01:11:45.246Z,27.33
2022-08-25T01:14:16.413Z,56.35
2022-08-25T01:16:43.974Z,29.60
2022-08-25T01:19:15.182Z,36.65
2022-08-25T01:21:51.100Z,42.42
2022-08-25T01:24:37.601Z,42.27
2022-08-25T01:27:05.848Z,37.42
2022-08-25T01:29:33.351Z,33.22
2022-08-25T01:32:04.677Z,36.35
2022-08-25T01:34:35.434Z,32.35
2022-08-25T01:37:02.754Z,37.13
2022-08-25T01:39:34.100Z,25.13
2022-08-25T01:42:06.737Z,39.95
2022-08-25T01:44:36.118Z,44.10
2022-08-25T01:47:04.256Z,31.73
2022-08-25T01:49:31.271Z,41.58
2022-08-25T01:52:25.927Z,43.42
2022-08-25T01:54:52.920Z,30.63
2022-08-25T01:57:20.007Z,33.80
2022-08-25T01:59:47.649Z,33.08
2022-08-25T02:02:15.088Z,39.13
2022-08-25T02:04:45.512Z,33.28
2022-08-25T02:07:12.633Z,46.65
2022-08-25T02:09:39.714Z,31.90
2022-08-25T02:12:09.275Z,30.02
2022-08-25T02:14:37.387Z,41.80
2022-08-25T02:17:05.589Z,35.40
2022-08-25T02:19:32.721Z,23.50
2022-08-25T02:22:00.439Z,29.50
2022-08-25T02:24:27.839Z,22.92
2022-08-25T02:26:55.509Z,37.97
2022-08-25T02:29:22.919Z,35.65
2022-08-25T02:31:49.988Z,26.33
2022-08-25T02:34:17.109Z,28.80
2022-08-25T02:36:44.416Z,24.25
2022-08-25T02:39:12.688Z,27.15
2022-08-25T02:41:40.447Z,27.35
2022-08-25T02:44:08.744Z,18.75
2022-08-25T02:46:37.498Z,30.85
2022-08-25T02:49:05.969Z,33.30
2022-08-25T02:51:34.780Z,32.30
2022-08-25T02:54:04.902Z,27.77
2022-08-25T02:56:33.286Z,33.63
2022-08-25T02:59:02.033Z,37.08
2022-08-25T03:01:30.506Z,18.25
2022-08-25T03:03:57.933Z,26.15
2022-08-25T03:06:25.059Z,25.30
2022-08-25T03:08:52.763Z,16.23
2022-08-25T03:11:20.836Z,17.23
2022-08-25T03:13:51.211Z,21.63
2022-08-25T03:16:19.153Z,25.20
2022-08-25T03:18:46.906Z,24.10
2022-08-25T03:21:15.909Z,20.27
2022-08-25T03:23:43.695Z,25.88
2022-08-25T03:26:29.189Z,20.52
2022-08-25T03:28:56.140Z,16.58
2022-08-25T03:31:26.226Z,31.05
2022-08-25T03:33:54.543Z,26.75
2022-08-25T03:36:21.490Z,16.35
2022-08-25T03:38:48.458Z,30.92
2022-08-25T03:41:22.043Z,17.30
2022-08-25T03:43:49.652Z,29.58
2022-08-25T03:46:23.489Z,27.45
2022-08-25T03:48:51.459Z,22.92
2022-08-25T03:51:34.177Z,27.27
2022-08-25T03:54:03.054Z,19.35
2022-08-25T03:56:30.902Z,22.23
2022-08-25T03:58:57.913Z,28.05
2022-08-25T04:01:25.743Z,11.50
2022-08-25T04:03:52.922Z,26.83
2022-08-25T04:06:21.837Z,29.23
2022-08-25T04:08:48.966Z,31.58
2022-08-25T04:11:19.279Z,27.73
2022-08-25T04:13:47.583Z,30.05
2022-08-25T04:16:26.755Z,23.92
2022-08-25T04:18:55.532Z,28.60
2022-08-25T04:21:23.624Z,19.30
2022-08-25T04:23:52.236Z,27.50
2022-08-25T04:26:21.157Z,28.05
2022-08-25T04:28:48.090Z,32.15
2022-08-25T04:31:19.836Z,21.13
2022-08-25T04:33:48.224Z,23.52
2022-08-25T04:36:17.090Z,17.60
2022-08-25T04:38:45.858Z,32.72
2022-08-25T04:41:15.172Z,24.30
2022-08-25T04:43:44.530Z,27.60
2022-08-25T04:46:20.251Z,29.95
2022-08-25T04:48:49.068Z,27.52
2022-08-25T04:51:19.296Z,27.48
2022-08-25T04:53:46.800Z,28.00
2022-08-25T04:56:16.283Z,27.58
2022-08-25T04:58:43.441Z,23.63
2022-08-25T05:01:15.688Z,29.88
2022-08-25T05:03:43.529Z,21.77
2022-08-25T05:06:15.283Z,22.65
2022-08-25T05:08:45.961Z,22.30
2022-08-25T05:11:16.731Z,24.02
2022-08-25T05:13:51.624Z,20.25
2022-08-25T05:16:20.271Z,29.38
2022-08-25T05:18:47.661Z,25.80
2022-08-25T05:21:21.731Z,40.42
2022-08-25T05:23:48.953Z,27.45
2022-08-25T05:26:20.574Z,21.40
2022-08-25T05:28:50.943Z,24.88
2022-08-25T05:31:19.232Z,26.38
2022-08-25T05:33:46.243Z,18.33
2022-08-25T05:36:14.463Z,21.83
2022-08-25T05:38:41.981Z,19.75
2022-08-25T05:41:11.824Z,24.23
2022-08-25T05:43:40.376Z,20.83
2022-08-25T05:46:08.429Z,26.75
2022-08-25T05:48:36.614Z,26.63
2022-08-25T05:51:06.219Z,14.68
2022-08-25T05:53:34.592Z,25.05
2022-08-25T05:56:02.335Z,20.58
2022-08-25T05:58:31.639Z,19.48
2022-08-25T06:01:20.398Z,16.40
2022-08-25T06:03:47.916Z,23.13
2022-08-25T06:06:16.188Z,22.73
2022-08-25T06:08:44.607Z,25.83
2022-08-25T06:11:13.135Z,23.60
2022-08-25T06:13:40.886Z,12.23
2022-08-25T06:16:08.045Z,15.95
2022-08-25T06:18:35.006Z,29.90
2022-08-25T06:21:13.130Z,16.80
2022-08-25T06:23:40.797Z,19.98
2022-08-25T06:26:13.175Z,22.13
2022-08-25T06:28:52.674Z,13.60
2022-08-25T06:31:22.491Z,15.38
2022-08-25T06:33:51.082Z,21.00
2022-08-25T06:36:19.374Z,29.33
2022-08-25T06:38:47.236Z,25.50
2022-08-25T06:41:14.750Z,21.90
2022-08-25T06:43:48.008Z,18.02
2022-08-25T06:46:35.598Z,18.33
2022-08-25T06:49:03.158Z,20.77
2022-08-25T06:51:30.085Z,24.33
2022-08-25T06:53:57.059Z,21.48
2022-08-25T06:56:24.112Z,18.83
2022-08-25T06:58:51.022Z,17.30
2022-08-25T07:01:26.305Z,34.42
2022-08-25T07:03:59.920Z,18.03
2022-08-25T07:06:29.610Z,28.45
2022-08-25T07:08:56.600Z,21.27
2022-08-25T07:11:23.823Z,22.25
2022-08-25T07:13:51.519Z,22.20
2022-08-25T07:16:21.014Z,17.20
2022-08-25T07:18:49.011Z,21.67
2022-08-25T07:21:16.017Z,20.60
2022-08-25T07:23:43.428Z,24.23
2022-08-25T07:26:39.325Z,15.40
2022-08-25T07:29:32.864Z,15.98
2022-08-25T07:32:04.076Z,18.30
2022-08-25T07:34:52.014Z,15.93
2022-08-25T07:37:38.439Z,16.05
2022-08-25T07:40:10.569Z,21.58
2022-08-25T07:42:38.002Z,26.42
2022-08-25T07:45:07.353Z,14.30
2022-08-25T07:47:34.946Z,28.27
2022-08-25T07:50:02.279Z,17.55
2022-08-25T07:52:32.717Z,11.70
2022-08-25T07:55:00.879Z,15.20
2022-08-25T07:57:29.681Z,19.00
2022-08-25T07:59:58.841Z,22.95
2022-08-25T08:02:26.127Z,30.33
2022-08-25T08:04:53.912Z,21.70
2022-08-25T08:07:36.956Z,22.98
2022-08-25T08:10:42.395Z,17.98
2022-08-25T08:13:00.535Z,21.20
2022-08-25T08:15:29.932Z,16.70
2022-08-25T08:17:58.545Z,18.77
2022-08-25T08:20:28.968Z,16.42
2022-08-25T08:22:56.071Z,16.38
2022-08-25T08:25:27.220Z,18.10
2022-08-25T08:27:56.323Z,14.45
2022-08-25T08:30:26.311Z,18.83
2022-08-25T08:33:11.259Z,17.45
2022-08-25T08:35:40.500Z,15.20
2022-08-25T08:38:14.925Z,21.60
2022-08-25T08:41:23.070Z,14.37
2022-08-25T08:43:56.567Z,17.50
2022-08-25T08:46:25.926Z,12.63
2022-08-25T08:49:29.031Z,17.35
2022-08-25T08:52:01.144Z,21.70
2022-08-25T08:54:37.465Z,20.20
2022-08-25T08:57:18.994Z,19.27
2022-08-25T08:59:52.102Z,21.48
2022-08-25T09:02:51.685Z,15.52
2022-08-25T09:05:21.099Z,16.58
2022-08-25T09:07:56.148Z,23.67
2022-08-25T09:10:26.362Z,23.80
2022-08-25T09:13:16.805Z,22.52
2022-08-25T09:16:34.101Z,12.85
2022-08-25T09:19:21.276Z,14.98
2022-08-25T09:22:02.511Z,21.00
2022-08-25T09:24:54.794Z,22.20
2022-08-25T09:27:24.653Z,14.60
2022-08-25T09:30:17.968Z,33.45
2022-08-25T09:32:52.345Z,11.30
2022-08-25T09:35:23.798Z,12.80
2022-08-25T09:38:03.824Z,18.05
2022-08-25T09:40:34.351Z,18.05
2022-08-25T09:43:05.797Z,14.55
2022-08-25T10:17:27.580Z,22.38
2022-08-25T10:20:17.213Z,14.60
2022-08-25T10:22:45.712Z,22.85
2022-08-25T10:25:21.092Z,23.52
2022-08-25T10:28:11.036Z,30.50
2022-08-25T10:30:51.681Z,30.73
2022-08-25T10:33:27.754Z,18.67
2022-08-25T10:36:20.319Z,14.55
2022-08-25T10:38:56.159Z,23.98
2022-08-25T10:41:32.033Z,25.73
2022-08-25T10:44:43.022Z,24.08
2022-08-25T10:47:53.166Z,32.95
2022-08-25T10:50:45.433Z,18.63
2022-08-25T10:53:13.404Z,40.72
2022-08-25T10:55:45.940Z,28.70
2022-08-25T10:58:45.192Z,29.23
2022-08-25T11:01:29.655Z,37.38
2022-08-25T11:04:10.413Z,29.35
2022-08-25T11:06:55.254Z,30.98
2022-08-25T11:09:29.302Z,41.60
2022-08-25T11:12:00.970Z,30.92
2022-08-25T11:14:56.908Z,50.75
2022-08-25T11:17:51.801Z,23.48
2022-08-25T11:20:26.826Z,42.85
2022-08-25T11:23:24.577Z,26.80
2022-08-25T11:25:54.143Z,28.10
2022-08-25T11:28:26.940Z,41.10
2022-08-25T11:30:57.825Z,30.63
2022-08-25T11:33:27.854Z,33.70
2022-08-25T11:36:00.021Z,38.03
2022-08-25T11:39:01.484Z,36.67
2022-08-25T11:41:49.582Z,39.35
2022-08-25T11:44:58.519Z,29.02
2022-08-25T11:47:51.372Z,24.83
2022-08-25T11:50:36.634Z,38.83
2022-08-25T11:53:12.307Z,31.73
2022-08-25T11:55:52.346Z,34.63
2022-08-25T11:58:28.143Z,35.28
2022-08-25T12:01:00.374Z,39.65
2022-08-25T12:03:36.353Z,41.58
2022-08-25T12:06:26.397Z,39.47
2022-08-25T12:08:57.676Z,35.55
2022-08-25T12:12:06.092Z,41.33
2022-08-25T12:14:42.171Z,26.80
2022-08-25T12:17:24.476Z,48.20
2022-08-25T12:19:54.902Z,33.53
2022-08-25T12:22:24.575Z,34.10
2022-08-25T12:25:03.592Z,46.40
2022-08-25T12:28:09.016Z,33.10
2022-08-25T12:30:50.544Z,38.58
2022-08-25T12:33:32.926Z,31.13
2022-08-25T12:36:03.698Z,35.90
2022-08-25T12:38:44.075Z,30.80
2022-08-25T12:41:13.232Z,28.13
2022-08-25T12:43:46.196Z,25.88
2022-08-25T12:46:37.674Z,48.20
2022-08-25T12:49:32.393Z,46.38
2022-08-25T12:52:12.826Z,33.17
2022-08-25T12:54:51.462Z,37.45
2022-08-25T12:57:31.687Z,51.75
2022-08-25T13:00:06.965Z,35.35
2022-08-25T13:03:04.981Z,38.20
2022-08-25T13:05:42.797Z,37.70
2022-08-25T13:08:34.155Z,32.08
2022-08-25T13:11:18.030Z,37.20
2022-08-25T13:14:08.481Z,39.17
2022-08-25T13:16:37.531Z,47.83
2022-08-25T13:19:06.881Z,50.42
2022-08-25T13:21:42.259Z,35.72
2022-08-25T13:24:22.695Z,51.00
2022-08-25T13:26:55.717Z,28.75
2022-08-25T13:29:30.106Z,50.13
2022-08-25T13:32:09.678Z,33.70
2022-08-25T13:34:38.845Z,24.95
2022-08-25T13:37:30.318Z,50.05
2022-08-25T13:40:25.925Z,30.80
2022-08-25T13:43:14.053Z,43.05
2022-08-25T13:45:47.535Z,40.10
2022-08-25T13:48:31.760Z,30.20
2022-08-25T13:51:09.976Z,48.97
2022-08-25T13:53:38.874Z,29.38
2022-08-25T13:56:07.462Z,40.25
2022-08-25T13:58:44.599Z,28.10
2022-08-25T14:01:19.911Z,36.35
2022-08-25T14:04:33.779Z,36.08
2022-08-25T14:07:19.435Z,42.10
2022-08-25T14:09:55.511Z,39.08
2022-08-25T14:12:40.066Z,39.57
2022-08-25T14:15:18.396Z,36.20
2022-08-25T14:17:59.796Z,52.88
2022-08-25T14:20:31.187Z,40.47
2022-08-25T14:23:09.879Z,45.17
2022-08-25T14:25:40.436Z,41.08
2022-08-25T14:28:21.985Z,34.05
2022-08-25T14:30:56.133Z,40.20
2022-08-25T14:33:30.109Z,39.38
2022-08-25T14:35:59.188Z,27.13
2022-08-25T14:38:26.595Z,49.45
2022-08-25T14:40:54.009Z,37.03
2022-08-25T14:43:23.783Z,41.20
2022-08-25T14:45:51.961Z,39.85
2022-08-25T14:48:39.186Z,24.85
2022-08-25T14:51:06.513Z,39.22
2022-08-25T14:53:33.990Z,29.70
2022-08-25T14:56:01.045Z,44.25
2022-08-25T14:58:35.768Z,55.80
2022-08-25T15:01:18.292Z,43.33
2022-08-25T15:04:02.411Z,28.77
2022-08-25T15:06:29.969Z,39.47
2022-08-25T15:09:11.197Z,40.17
2022-08-25T15:11:44.586Z,56.28
2022-08-25T15:14:15.851Z,51.55
2022-08-25T15:16:49.351Z,32.78
2022-08-25T15:19:18.563Z,50.03
2022-08-25T15:21:47.492Z,38.28
2022-08-25T15:24:17.406Z,40.45
2022-08-25T15:29:26.375Z,34.40
2022-08-25T15:31:53.634Z,40.70
2022-08-25T15:34:20.760Z,20.65
2022-08-25T15:36:48.317Z,25.42
2022-08-25T15:39:18.889Z,28.73
2022-08-25T15:41:49.293Z,34.28
2022-08-25T15:44:16.680Z,36.47
2022-08-25T15:46:47.013Z,29.30
2022-08-25T15:49:20.718Z,37.67
2022-08-25T15:51:52.625Z,32.55
2022-08-25T15:54:20.860Z,30.55
2022-08-25T15:56:47.807Z,26.10
2022-08-25T15:59:15.556Z,26.73
2022-08-25T16:01:46.462Z,34.92
2022-08-25T16:04:14.544Z,26.77
2022-08-25T16:06:41.527Z,23.55
2022-08-25T16:09:08.480Z,27.88
2022-08-25T16:11:38.521Z,26.20
2022-08-25T16:14:06.559Z,32.53
2022-08-25T16:16:33.970Z,19.38
2022-08-25T16:19:02.493Z,23.20
2022-08-25T16:21:33.146Z,41.95
2022-08-25T16:24:05.510Z,23.85
2022-08-25T16:26:46.298Z,24.92
2022-08-25T16:29:15.745Z,36.72
2022-08-25T16:31:44.492Z,23.10
2022-08-25T16:34:12.239Z,27.42
2022-08-25T16:36:40.163Z,48.78
2022-08-25T16:39:09.950Z,34.70
2022-08-25T16:41:37.465Z,31.70
2022-08-25T16:44:11.212Z,33.03
2022-08-25T16:46:40.662Z,41.97
2022-08-25T16:49:08.993Z,35.72
2022-08-25T16:51:38.246Z,28.77
2022-08-25T16:54:24.489Z,41.95
2022-08-25T16:56:55.169Z,28.45
2022-08-25T16:59:23.370Z,30.38
2022-08-25T17:01:52.515Z,26.40
2022-08-25T17:04:20.329Z,32.15
2022-08-25T17:06:51.689Z,34.47
2022-08-25T17:09:22.878Z,35.28
2022-08-25T17:11:54.160Z,14.05
2022-08-25T17:14:22.041Z,25.65
2022-08-25T17:16:51.357Z,26.40
2022-08-25T17:19:19.034Z,28.42
2022-08-25T17:21:47.298Z,42.25
2022-08-25T17:24:17.321Z,23.35
2022-08-25T17:26:55.310Z,24.70
2022-08-25T17:29:22.192Z,36.63
2022-08-25T17:31:49.362Z,36.25
2022-08-25T17:34:23.311Z,36.95
2022-08-25T17:36:51.467Z,39.15
2022-08-25T17:39:22.119Z,38.35
2022-08-25T17:41:49.934Z,43.67
2022-08-25T17:44:17.481Z,28.63
2022-08-25T17:46:47.132Z,36.40
2022-08-25T17:49:15.724Z,37.08
2022-08-25T17:51:42.879Z,39.95
2022-08-25T17:54:10.902Z,30.08
2022-08-25T17:56:38.204Z,34.95
2022-08-25T17:59:06.013Z,26.15
2022-08-25T18:01:40.245Z,30.55
2022-08-25T18:04:16.951Z,37.15
2022-08-25T18:06:45.563Z,33.75
2022-08-25T18:09:12.845Z,25.67
2022-08-25T18:11:39.779Z,35.95
2022-08-25T18:14:06.757Z,32.78
2022-08-25T18:16:38.499Z,31.33
2022-08-25T18:19:06.629Z,33.40
2022-08-25T18:21:37.209Z,46.10
2022-08-25T18:24:05.238Z,23.08
2022-08-25T18:26:32.961Z,25.90
2022-08-25T18:29:00.202Z,26.00
2022-08-25T18:31:27.256Z,22.95
2022-08-25T18:33:54.353Z,34.88
2022-08-25T18:36:21.376Z,14.52
2022-08-25T18:39:07.422Z,22.65
2022-08-25T18:41:42.540Z,25.13
2022-08-25T18:44:11.030Z,18.92
2022-08-25T18:46:39.995Z,18.83
2022-08-25T18:49:07.195Z,28.95
2022-08-25T18:51:35.830Z,19.38
2022-08-25T18:54:03.819Z,23.35
2022-08-25T18:56:31.020Z,25.67
2022-08-25T18:58:58.556Z,23.17
2022-08-25T19:01:25.632Z,29.08
2022-08-25T19:03:52.775Z,25.90
2022-08-25T19:06:20.719Z,25.75
2022-08-25T19:08:48.609Z,22.23
2022-08-25T19:11:16.794Z,17.08
2022-08-25T19:13:44.888Z,18.88
2022-08-25T19:16:20.522Z,20.67
2022-08-25T19:18:49.076Z,23.50
2022-08-25T19:21:22.671Z,21.02
2022-08-25T19:23:51.331Z,15.05
2022-08-25T19:26:19.390Z,15.13
2022-08-25T19:28:48.923Z,25.33
2022-08-25T19:31:21.952Z,16.25
2022-08-25T19:33:51.546Z,18.55
2022-08-25T19:36:22.959Z,21.27
2022-08-25T19:38:51.706Z,18.42
2022-08-25T19:41:20.189Z,19.52
2022-08-25T19:43:50.535Z,16.30
2022-08-25T19:46:26.288Z,13.93
2022-08-25T19:49:07.157Z,18.23
2022-08-25T19:51:46.449Z,20.40
2022-08-25T19:54:16.513Z,14.40
2022-08-25T19:56:54.009Z,27.00
2022-08-25T19:59:34.337Z,16.63
2022-08-25T20:02:15.069Z,13.90
2022-08-25T20:04:49.614Z,16.65
2022-08-25T20:07:19.109Z,18.27
2022-08-25T20:09:46.077Z,23.10
2022-08-25T20:14:47.229Z,21.15
2022-08-25T20:17:24.551Z,21.23
2022-08-25T20:19:58.859Z,14.43
2022-08-25T20:22:27.857Z,8.43
2022-08-25T20:25:01.291Z,17.92
2022-08-25T20:27:33.529Z,19.98
2022-08-25T20:30:02.856Z,22.98
2022-08-25T20:32:31.682Z,13.38
2022-08-25T20:34:58.639Z,12.93
2022-08-25T20:37:26.009Z,20.70
2022-08-25T20:39:53.275Z,15.60
2022-08-25T20:42:20.623Z,14.88
2022-08-25T20:44:47.801Z,21.50
2022-08-25T20:47:15.465Z,14.65
2022-08-25T20:49:45.220Z,20.50
2022-08-25T20:52:14.234Z,15.88
2022-08-25T20:54:47.068Z,17.17
2022-08-25T20:57:25.461Z,19.30
2022-08-25T20:59:54.483Z,12.48
2022-08-25T21:02:22.529Z,18.23
2022-08-25T21:04:50.449Z,13.48
2022-08-25T21:07:18.669Z,22.02
2022-08-25T21:09:46.205Z,11.10
2022-08-25T21:12:13.384Z,16.60
2022-08-25T21:14:41.792Z,13.88
2022-08-25T21:17:12.820Z,23.27
2022-08-25T21:19:41.856Z,11.23
2022-08-25T21:22:10.847Z,12.40
2022-08-25T21:24:38.693Z,13.25
2022-08-25T21:27:06.487Z,11.05
2022-08-25T21:29:33.546Z,11.98
2022-08-25T21:32:01.121Z,8.82
2022-08-25T21:34:29.401Z,13.05
2022-08-25T21:37:00.213Z,12.27
2022-08-25T21:39:29.689Z,13.00
2022-08-25T21:42:00.278Z,17.83
2022-08-25T21:44:28.903Z,12.90
2022-08-25T21:46:56.356Z,15.98
2022-08-25T21:49:23.827Z,17.85
2022-08-25T21:52:00.107Z,17.95
2022-08-25T21:54:29.056Z,15.13
2022-08-25T21:56:59.940Z,17.42
2022-08-25T21:59:33.602Z,21.88
2022-08-25T22:02:04.381Z,20.65
2022-08-25T22:04:32.156Z,21.05
2022-08-25T22:06:59.429Z,19.17
2022-08-25T22:09:28.388Z,14.00
2022-08-25T22:11:56.693Z,9.77
2022-08-25T22:14:26.062Z,21.90
2022-08-25T22:16:54.668Z,13.27
2022-08-25T22:19:22.927Z,19.48
2022-08-25T22:21:51.422Z,19.15
2022-08-25T22:24:19.111Z,14.13
2022-08-25T22:26:47.742Z,11.30
2022-08-25T22:29:24.936Z,22.65
2022-08-25T22:31:59.881Z,19.60
2022-08-25T22:34:32.755Z,19.40
2022-08-25T22:37:03.540Z,15.95
2022-08-25T22:39:32.233Z,13.60
2022-08-25T22:42:01.958Z,18.35
2022-08-25T22:44:29.131Z,21.88
2022-08-25T22:46:56.192Z,16.50
2022-08-25T22:49:23.846Z,9.80
2022-08-25T22:51:51.124Z,14.50
2022-08-25T22:54:22.117Z,14.38
2022-08-25T22:56:49.140Z,12.38
2022-08-25T22:59:16.338Z,10.27
2022-08-25T23:01:44.528Z,13.30
2022-08-25T23:04:12.294Z,15.20
2022-08-25T23:06:39.981Z,18.15
2022-08-25T23:09:08.651Z,9.95
2022-08-25T23:11:38.503Z,16.45
2022-08-25T23:14:09.653Z,12.68
2022-08-25T23:16:41.948Z,18.75
2022-08-25T23:19:11.020Z,12.43
2022-08-25T23:22:01.178Z,15.70
2022-08-25T23:26:59.182Z,18.63
2022-08-25T23:29:27.935Z,23.67
2022-08-25T23:31:55.186Z,12.25
2022-08-25T23:34:23.872Z,12.38
2022-08-25T23:36:51.581Z,17.10
2022-08-25T23:39:18.850Z,12.52
2022-08-25T23:41:49.466Z,11.43
2022-08-25T23:44:17.346Z,16.30
2022-08-25T23:46:47.063Z,18.15
2022-08-25T23:49:18.348Z,9.88
2022-08-25T23:51:47.426Z,16.95
2022-08-25T23:54:16.239Z,14.52
2022-08-25T23:56:51.686Z,12.98
2022-08-25T23:59:24.466Z,9.57
